sensor_id;sensor_type;location;lat;lon;timestamp;pressure;altitude;pressure_sealevel;temperature;humidity
59971;BME280;45825;45.434;9.116;2024-02-26T00:02:18;99401.56;;;9.04;100.00
59971;BME280;45825;45.434;9.116;2024-02-26T00:04:43;99392.56;;;8.94;100.00
59971;BME280;45825;45.434;9.116;2024-02-26T00:07:08;99394.91;;;8.99;100.00
59971;BME280;45825;45.434;9.116;2024-02-26T00:09:33;99398.28;;;9.01;100.00
59971;BME280;45825;45.434;9.116;2024-02-26T00:12:04;99397.81;;;8.94;100.00
59971;BME280;45825;45.434;9.116;2024-02-26T00:14:31;99399.78;;;8.90;100.00
59971;BME280;45825;45.434;9.116;2024-02-26T00:16:56;99394.66;;;8.89;100.00
59971;BME280;45825;45.434;9.116;2024-02-26T00:19:21;99391.53;;;8.97;100.00
59971;BME280;45825;45.434;9.116;2024-02-26T00:21:48;99380.97;;;8.84;100.00
59971;BME280;45825;45.434;9.116;2024-02-26T00:24:13;99387.81;;;8.86;100.00
59971;BME280;45825;45.434;9.116;2024-02-26T00:26:39;99382.38;;;8.75;100.00
59971;BME280;45825;45.434;9.116;2024-02-26T00:29:04;99386.13;;;8.85;100.00
59971;BME280;45825;45.434;9.116;2024-02-26T00:31:29;99380.50;;;8.77;100.00
59971;BME280;45825;45.434;9.116;2024-02-26T00:33:55;99376.50;;;8.57;100.00
59971;BME280;45825;45.434;9.116;2024-02-26T00:36:20;99381.34;;;8.77;100.00
59971;BME280;45825;45.434;9.116;2024-02-26T00:38:46;99366.00;;;8.71;100.00
59971;BME280;45825;45.434;9.116;2024-02-26T00:41:16;99372.84;;;8.74;100.00
59971;BME280;45825;45.434;9.116;2024-02-26T00:43:42;99365.22;;;8.84;100.00
59971;BME280;45825;45.434;9.116;2024-02-26T00:46:08;99370.03;;;8.77;100.00
59971;BME280;45825;45.434;9.116;2024-02-26T00:48:33;99369.28;;;8.75;100.00
59971;BME280;45825;45.434;9.116;2024-02-26T00:50:59;99364.19;;;8.86;100.00
59971;BME280;45825;45.434;9.116;2024-02-26T00:53:24;99365.88;;;8.87;100.00
59971;BME280;45825;45.434;9.116;2024-02-26T00:55:50;99362.31;;;8.88;100.00
59971;BME280;45825;45.434;9.116;2024-02-26T00:58:15;99359.69;;;8.88;100.00
59971;BME280;45825;45.434;9.116;2024-02-26T01:00:41;99353.72;;;8.86;100.00
59971;BME280;45825;45.434;9.116;2024-02-26T01:03:07;99353.53;;;8.75;100.00
59971;BME280;45825;45.434;9.116;2024-02-26T01:05:32;99351.28;;;8.69;100.00
59971;BME280;45825;45.434;9.116;2024-02-26T01:07:57;99345.84;;;8.72;100.00
59971;BME280;45825;45.434;9.116;2024-02-26T01:10:23;99346.78;;;8.71;100.00
59971;BME280;45825;45.434;9.116;2024-02-26T01:12:48;99335.19;;;8.75;100.00
59971;BME280;45825;45.434;9.116;2024-02-26T01:15:13;99339.19;;;8.80;100.00
59971;BME280;45825;45.434;9.116;2024-02-26T01:17:38;99334.47;;;8.86;100.00
59971;BME280;45825;45.434;9.116;2024-02-26T01:20:04;99336.66;;;8.79;100.00
59971;BME280;45825;45.434;9.116;2024-02-26T01:22:30;99338.47;;;8.78;100.00
59971;BME280;45825;45.434;9.116;2024-02-26T01:24:55;99334.88;;;8.79;100.00
59971;BME280;45825;45.434;9.116;2024-02-26T01:27:21;99333.38;;;8.75;100.00
59971;BME280;45825;45.434;9.116;2024-02-26T01:29:51;99336.94;;;8.74;100.00
59971;BME280;45825;45.434;9.116;2024-02-26T01:32:17;99333.59;;;8.72;100.00
59971;BME280;45825;45.434;9.116;2024-02-26T01:34:42;99332.09;;;8.68;100.00
59971;BME280;45825;45.434;9.116;2024-02-26T01:37:07;99323.25;;;8.84;100.00
59971;BME280;45825;45.434;9.116;2024-02-26T01:39:33;99325.88;;;8.84;100.00
59971;BME280;45825;45.434;9.116;2024-02-26T01:41:58;99322.88;;;8.75;100.00
59971;BME280;45825;45.434;9.116;2024-02-26T01:44:26;99321.88;;;8.78;100.00
59971;BME280;45825;45.434;9.116;2024-02-26T01:46:51;99319.16;;;8.65;100.00
59971;BME280;45825;45.434;9.116;2024-02-26T01:49:18;99317.56;;;8.77;100.00
59971;BME280;45825;45.434;9.116;2024-02-26T01:51:44;99317.06;;;8.85;100.00
59971;BME280;45825;45.434;9.116;2024-02-26T01:54:09;99304.81;;;8.71;100.00
59971;BME280;45825;45.434;9.116;2024-02-26T01:56:36;99306.41;;;8.73;100.00
59971;BME280;45825;45.434;9.116;2024-02-26T01:59:03;99306.25;;;8.62;100.00
59971;BME280;45825;45.434;9.116;2024-02-26T02:01:31;99306.03;;;8.65;100.00
59971;BME280;45825;45.434;9.116;2024-02-26T02:03:58;99299.47;;;8.72;100.00
59971;BME280;45825;45.434;9.116;2024-02-26T02:06:24;99300.81;;;8.50;100.00
59971;BME280;45825;45.434;9.116;2024-02-26T02:08:49;99299.56;;;8.71;100.00
59971;BME280;45825;45.434;9.116;2024-02-26T02:11:14;99308.94;;;8.60;100.00
59971;BME280;45825;45.434;9.116;2024-02-26T02:13:40;99299.41;;;8.74;100.00
59971;BME280;45825;45.434;9.116;2024-02-26T02:16:06;99291.81;;;8.69;100.00
59971;BME280;45825;45.434;9.116;2024-02-26T02:18:31;99298.09;;;8.66;100.00
59971;BME280;45825;45.434;9.116;2024-02-26T02:20:57;99286.94;;;8.63;100.00
59971;BME280;45825;45.434;9.116;2024-02-26T02:23:25;99284.53;;;8.60;100.00
59971;BME280;45825;45.434;9.116;2024-02-26T02:25:50;99288.47;;;8.67;100.00
59971;BME280;45825;45.434;9.116;2024-02-26T02:28:16;99285.47;;;8.59;100.00
59971;BME280;45825;45.434;9.116;2024-02-26T02:30:41;99276.44;;;8.63;100.00
59971;BME280;45825;45.434;9.116;2024-02-26T02:33:07;99275.16;;;8.56;100.00
59971;BME280;45825;45.434;9.116;2024-02-26T02:35:32;99276.44;;;8.63;100.00
59971;BME280;45825;45.434;9.116;2024-02-26T02:37:57;99279.25;;;8.74;100.00
59971;BME280;45825;45.434;9.116;2024-02-26T02:40:23;99282.16;;;8.70;100.00
59971;BME280;45825;45.434;9.116;2024-02-26T02:42:48;99278.13;;;8.64;100.00
59971;BME280;45825;45.434;9.116;2024-02-26T02:45:14;99279.44;;;8.71;100.00
59971;BME280;45825;45.434;9.116;2024-02-26T02:47:39;99274.19;;;8.71;100.00
59971;BME280;45825;45.434;9.116;2024-02-26T02:50:05;99268.50;;;8.64;100.00
59971;BME280;45825;45.434;9.116;2024-02-26T02:52:30;99267.72;;;8.77;100.00
59971;BME280;45825;45.434;9.116;2024-02-26T02:54:56;99274.84;;;8.75;100.00
59971;BME280;45825;45.434;9.116;2024-02-26T02:57:21;99264.34;;;8.75;100.00
59971;BME280;45825;45.434;9.116;2024-02-26T02:59:47;99260.22;;;8.71;100.00
59971;BME280;45825;45.434;9.116;2024-02-26T03:02:12;99253.00;;;8.74;100.00
59971;BME280;45825;45.434;9.116;2024-02-26T03:04:37;99253.41;;;8.68;100.00
59971;BME280;45825;45.434;9.116;2024-02-26T03:07:03;99249.44;;;8.75;100.00
59971;BME280;45825;45.434;9.116;2024-02-26T03:09:28;99247.19;;;8.84;100.00
59971;BME280;45825;45.434;9.116;2024-02-26T03:11:53;99238.66;;;8.80;100.00
59971;BME280;45825;45.434;9.116;2024-02-26T03:14:19;99234.41;;;8.64;100.00
59971;BME280;45825;45.434;9.116;2024-02-26T03:16:44;99240.84;;;8.73;100.00
59971;BME280;45825;45.434;9.116;2024-02-26T03:19:09;99245.25;;;8.73;100.00
59971;BME280;45825;45.434;9.116;2024-02-26T03:21:35;99247.31;;;8.68;100.00
59971;BME280;45825;45.434;9.116;2024-02-26T03:24:00;99243.47;;;8.73;100.00
59971;BME280;45825;45.434;9.116;2024-02-26T03:26:25;99248.16;;;8.68;100.00
59971;BME280;45825;45.434;9.116;2024-02-26T03:28:50;99244.19;;;8.75;100.00
59971;BME280;45825;45.434;9.116;2024-02-26T03:31:16;99249.13;;;8.67;100.00
59971;BME280;45825;45.434;9.116;2024-02-26T03:33:41;99244.31;;;8.74;100.00
59971;BME280;45825;45.434;9.116;2024-02-26T03:36:06;99238.66;;;8.80;100.00
59971;BME280;45825;45.434;9.116;2024-02-26T03:38:33;99235.09;;;8.81;100.00
59971;BME280;45825;45.434;9.116;2024-02-26T03:40:58;99228.75;;;8.71;100.00
59971;BME280;45825;45.434;9.116;2024-02-26T03:43:23;99228.38;;;8.77;100.00
59971;BME280;45825;45.434;9.116;2024-02-26T03:45:49;99225.41;;;8.69;100.00
59971;BME280;45825;45.434;9.116;2024-02-26T03:48:14;99235.00;;;8.55;100.00
59971;BME280;45825;45.434;9.116;2024-02-26T03:50:39;99213.44;;;8.64;100.00
59971;BME280;45825;45.434;9.116;2024-02-26T03:53:05;99222.41;;;8.60;100.00
59971;BME280;45825;45.434;9.116;2024-02-26T03:55:30;99225.31;;;8.56;100.00
59971;BME280;45825;45.434;9.116;2024-02-26T03:57:55;99217.09;;;8.62;100.00
59971;BME280;45825;45.434;9.116;2024-02-26T04:00:21;99219.06;;;8.58;100.00
59971;BME280;45825;45.434;9.116;2024-02-26T04:02:47;99220.66;;;8.61;100.00
59971;BME280;45825;45.434;9.116;2024-02-26T04:05:13;99208.34;;;8.61;100.00
59971;BME280;45825;45.434;9.116;2024-02-26T04:07:39;99220.09;;;8.56;100.00
59971;BME280;45825;45.434;9.116;2024-02-26T04:10:11;99219.25;;;8.55;100.00
59971;BME280;45825;45.434;9.116;2024-02-26T04:12:41;99213.53;;;8.48;100.00
59971;BME280;45825;45.434;9.116;2024-02-26T04:15:10;99206.44;;;8.50;100.00
59971;BME280;45825;45.434;9.116;2024-02-26T04:17:36;99213.41;;;8.50;100.00
59971;BME280;45825;45.434;9.116;2024-02-26T04:20:03;99205.75;;;8.47;100.00
59971;BME280;45825;45.434;9.116;2024-02-26T04:22:28;99198.38;;;8.53;100.00
59971;BME280;45825;45.434;9.116;2024-02-26T04:24:54;99203.81;;;8.50;100.00
59971;BME280;45825;45.434;9.116;2024-02-26T04:27:19;99207.72;;;8.43;100.00
59971;BME280;45825;45.434;9.116;2024-02-26T04:29:44;99213.06;;;8.56;100.00
59971;BME280;45825;45.434;9.116;2024-02-26T04:32:10;99208.84;;;8.53;100.00
59971;BME280;45825;45.434;9.116;2024-02-26T04:34:35;99208.78;;;8.55;100.00
59971;BME280;45825;45.434;9.116;2024-02-26T04:37:00;99207.75;;;8.58;100.00
59971;BME280;45825;45.434;9.116;2024-02-26T04:39:26;99210.44;;;8.56;100.00
59971;BME280;45825;45.434;9.116;2024-02-26T04:41:51;99209.22;;;8.47;100.00
59971;BME280;45825;45.434;9.116;2024-02-26T04:44:16;99208.78;;;8.41;100.00
59971;BME280;45825;45.434;9.116;2024-02-26T04:46:42;99209.97;;;8.49;100.00
59971;BME280;45825;45.434;9.116;2024-02-26T04:49:07;99216.81;;;8.37;100.00
59971;BME280;45825;45.434;9.116;2024-02-26T04:51:32;99208.88;;;8.39;100.00
59971;BME280;45825;45.434;9.116;2024-02-26T04:53:57;99202.97;;;8.35;100.00
59971;BME280;45825;45.434;9.116;2024-02-26T04:56:23;99202.31;;;8.32;100.00
59971;BME280;45825;45.434;9.116;2024-02-26T04:58:48;99202.31;;;8.32;100.00
59971;BME280;45825;45.434;9.116;2024-02-26T05:01:15;99216.81;;;8.37;100.00
59971;BME280;45825;45.434;9.116;2024-02-26T05:03:42;99210.00;;;8.35;100.00
59971;BME280;45825;45.434;9.116;2024-02-26T05:06:08;99215.72;;;8.42;100.00
59971;BME280;45825;45.434;9.116;2024-02-26T05:08:34;99205.38;;;8.38;100.00
59971;BME280;45825;45.434;9.116;2024-02-26T05:11:01;99211.50;;;8.39;100.00
59971;BME280;45825;45.434;9.116;2024-02-26T05:13:28;99205.22;;;8.42;100.00
59971;BME280;45825;45.434;9.116;2024-02-26T05:15:53;99207.75;;;8.29;100.00
59971;BME280;45825;45.434;9.116;2024-02-26T05:18:18;99214.03;;;8.26;100.00
59971;BME280;45825;45.434;9.116;2024-02-26T05:20:44;99219.19;;;8.28;100.00
59971;BME280;45825;45.434;9.116;2024-02-26T05:23:09;99220.41;;;8.22;100.00
59971;BME280;45825;45.434;9.116;2024-02-26T05:25:34;99220.22;;;8.25;100.00
59971;BME280;45825;45.434;9.116;2024-02-26T05:28:00;99212.34;;;8.25;100.00
59971;BME280;45825;45.434;9.116;2024-02-26T05:30:25;99210.38;;;8.29;100.00
59971;BME280;45825;45.434;9.116;2024-02-26T05:32:53;99210.41;;;8.14;100.00
59971;BME280;45825;45.434;9.116;2024-02-26T05:35:18;99204.22;;;8.15;100.00
59971;BME280;45825;45.434;9.116;2024-02-26T05:37:43;99205.78;;;8.18;100.00
59971;BME280;45825;45.434;9.116;2024-02-26T05:40:09;99208.72;;;8.13;100.00
59971;BME280;45825;45.434;9.116;2024-02-26T05:42:34;99206.00;;;8.15;100.00
59971;BME280;45825;45.434;9.116;2024-02-26T05:45:00;99211.03;;;8.18;100.00
59971;BME280;45825;45.434;9.116;2024-02-26T05:47:30;99212.63;;;8.20;100.00
59971;BME280;45825;45.434;9.116;2024-02-26T05:49:55;99205.44;;;8.24;100.00
59971;BME280;45825;45.434;9.116;2024-02-26T05:52:23;99204.50;;;8.25;100.00
59971;BME280;45825;45.434;9.116;2024-02-26T05:54:49;99211.91;;;8.18;100.00
59971;BME280;45825;45.434;9.116;2024-02-26T05:57:14;99212.84;;;8.17;100.00
59971;BME280;45825;45.434;9.116;2024-02-26T05:59:39;99218.28;;;8.14;100.00
59971;BME280;45825;45.434;9.116;2024-02-26T06:02:04;99216.69;;;8.11;100.00
59971;BME280;45825;45.434;9.116;2024-02-26T06:04:30;99209.19;;;8.05;100.00
59971;BME280;45825;45.434;9.116;2024-02-26T06:06:56;99216.09;;;8.06;100.00
59971;BME280;45825;45.434;9.116;2024-02-26T06:09:22;99206.69;;;8.04;100.00
59971;BME280;45825;45.434;9.116;2024-02-26T06:11:47;99218.63;;;8.08;100.00
59971;BME280;45825;45.434;9.116;2024-02-26T06:14:13;99213.78;;;8.16;100.00
59971;BME280;45825;45.434;9.116;2024-02-26T06:16:39;99216.59;;;8.13;100.00
59971;BME280;45825;45.434;9.116;2024-02-26T06:19:04;99212.25;;;8.12;100.00
59971;BME280;45825;45.434;9.116;2024-02-26T06:21:30;99210.13;;;8.04;100.00
59971;BME280;45825;45.434;9.116;2024-02-26T06:23:55;99206.47;;;8.07;100.00
59971;BME280;45825;45.434;9.116;2024-02-26T06:26:20;99210.78;;;8.08;100.00
59971;BME280;45825;45.434;9.116;2024-02-26T06:28:45;99212.84;;;8.03;100.00
59971;BME280;45825;45.434;9.116;2024-02-26T06:31:11;99212.47;;;8.09;100.00
59971;BME280;45825;45.434;9.116;2024-02-26T06:33:36;99228.47;;;8.04;100.00
59971;BME280;45825;45.434;9.116;2024-02-26T06:36:02;99227.72;;;8.02;100.00
59971;BME280;45825;45.434;9.116;2024-02-26T06:38:27;99234.56;;;8.05;100.00
59971;BME280;45825;45.434;9.116;2024-02-26T06:40:53;99237.19;;;8.05;100.00
59971;BME280;45825;45.434;9.116;2024-02-26T06:43:18;99243.16;;;8.07;100.00
59971;BME280;45825;45.434;9.116;2024-02-26T06:45:43;99253.38;;;7.97;100.00
59971;BME280;45825;45.434;9.116;2024-02-26T06:48:08;99262.91;;;7.98;100.00
59971;BME280;45825;45.434;9.116;2024-02-26T06:50:34;99263.94;;;7.95;100.00
59971;BME280;45825;45.434;9.116;2024-02-26T06:52:59;99265.06;;;7.91;100.00
59971;BME280;45825;45.434;9.116;2024-02-26T06:55:24;99264.75;;;7.96;100.00
59971;BME280;45825;45.434;9.116;2024-02-26T06:57:50;99266.56;;;7.95;100.00
59971;BME280;45825;45.434;9.116;2024-02-26T07:00:15;99266.63;;;7.94;100.00
59971;BME280;45825;45.434;9.116;2024-02-26T07:02:44;99265.63;;;7.96;100.00
59971;BME280;45825;45.434;9.116;2024-02-26T07:05:10;99263.38;;;8.05;100.00
59971;BME280;45825;45.434;9.116;2024-02-26T07:07:35;99264.41;;;8.02;100.00
59971;BME280;45825;45.434;9.116;2024-02-26T07:10:01;99267.22;;;7.99;100.00
59971;BME280;45825;45.434;9.116;2024-02-26T07:12:29;99268.03;;;8.00;100.00
59971;BME280;45825;45.434;9.116;2024-02-26T07:14:55;99266.81;;;8.05;100.00
59971;BME280;45825;45.434;9.116;2024-02-26T07:17:20;99268.22;;;8.11;100.00
59971;BME280;45825;45.434;9.116;2024-02-26T07:19:45;99261.22;;;8.11;100.00
59971;BME280;45825;45.434;9.116;2024-02-26T07:22:10;99264.13;;;8.07;100.00
59971;BME280;45825;45.434;9.116;2024-02-26T07:24:36;99266.09;;;8.03;100.00
59971;BME280;45825;45.434;9.116;2024-02-26T07:27:01;99268.91;;;8.00;100.00
59971;BME280;45825;45.434;9.116;2024-02-26T07:29:27;99276.28;;;7.93;100.00
59971;BME280;45825;45.434;9.116;2024-02-26T07:31:52;99278.91;;;7.93;100.00
59971;BME280;45825;45.434;9.116;2024-02-26T07:34:18;99281.88;;;7.87;100.00
59971;BME280;45825;45.434;9.116;2024-02-26T07:36:43;99284.97;;;7.94;100.00
59971;BME280;45825;45.434;9.116;2024-02-26T07:39:08;99280.19;;;8.01;100.00
59971;BME280;45825;45.434;9.116;2024-02-26T07:41:33;99280.31;;;7.99;100.00
59971;BME280;45825;45.434;9.116;2024-02-26T07:43:59;99273.19;;;8.01;100.00
59971;BME280;45825;45.434;9.116;2024-02-26T07:46:24;99272.25;;;8.02;100.00
59971;BME280;45825;45.434;9.116;2024-02-26T07:48:49;99277.59;;;8.01;100.00
59971;BME280;45825;45.434;9.116;2024-02-26T07:51:15;99265.34;;;8.01;100.00
59971;BME280;45825;45.434;9.116;2024-02-26T07:53:40;99266.28;;;8.00;100.00
59971;BME280;45825;45.434;9.116;2024-02-26T07:56:06;99250.56;;;8.00;100.00
59971;BME280;45825;45.434;9.116;2024-02-26T07:58:34;99251.69;;;8.10;100.00
59971;BME280;45825;45.434;9.116;2024-02-26T08:00:59;99248.03;;;8.13;100.00
59971;BME280;45825;45.434;9.116;2024-02-26T08:03:25;99247.00;;;8.16;100.00
59971;BME280;45825;45.434;9.116;2024-02-26T08:05:51;99250.25;;;8.19;100.00
59971;BME280;45825;45.434;9.116;2024-02-26T08:08:16;99263.16;;;8.22;100.00
59971;BME280;45825;45.434;9.116;2024-02-26T08:10:42;99264.75;;;8.25;100.00
59971;BME280;45825;45.434;9.116;2024-02-26T08:13:07;99274.31;;;8.26;100.00
59971;BME280;45825;45.434;9.116;2024-02-26T08:15:33;99265.06;;;8.20;100.00
59971;BME280;45825;45.434;9.116;2024-02-26T08:18:03;99256.81;;;8.27;100.00
59971;BME280;45825;45.434;9.116;2024-02-26T08:20:29;99266.16;;;8.31;100.00
59971;BME280;45825;45.434;9.116;2024-02-26T08:22:55;99273.09;;;8.32;100.00
59971;BME280;45825;45.434;9.116;2024-02-26T08:25:20;99276.56;;;8.32;100.00
59971;BME280;45825;45.434;9.116;2024-02-26T08:27:45;99273.66;;;8.37;100.00
59971;BME280;45825;45.434;9.116;2024-02-26T08:30:13;99273.53;;;8.38;100.00
59971;BME280;45825;45.434;9.116;2024-02-26T08:32:41;99276.75;;;8.44;100.00
59971;BME280;45825;45.434;9.116;2024-02-26T08:35:07;99288.34;;;8.39;100.00
59971;BME280;45825;45.434;9.116;2024-02-26T08:37:33;99288.06;;;8.44;100.00
59971;BME280;45825;45.434;9.116;2024-02-26T08:39:58;99287.22;;;8.44;100.00
59971;BME280;45825;45.434;9.116;2024-02-26T08:42:23;99288.16;;;8.43;100.00
59971;BME280;45825;45.434;9.116;2024-02-26T08:44:49;99270.00;;;8.39;100.00
59971;BME280;45825;45.434;9.116;2024-02-26T08:47:14;99273.25;;;8.43;100.00
59971;BME280;45825;45.434;9.116;2024-02-26T08:49:44;99275.34;;;8.38;100.00
59971;BME280;45825;45.434;9.116;2024-02-26T08:52:10;99283.88;;;8.42;100.00
59971;BME280;45825;45.434;9.116;2024-02-26T08:54:35;99278.16;;;8.35;100.00
59971;BME280;45825;45.434;9.116;2024-02-26T08:57:00;99272.44;;;8.43;100.00
59971;BME280;45825;45.434;9.116;2024-02-26T08:59:25;99271.22;;;8.34;100.00
59971;BME280;45825;45.434;9.116;2024-02-26T09:01:51;99280.38;;;8.41;100.00
59971;BME280;45825;45.434;9.116;2024-02-26T09:04:16;99278.25;;;8.33;100.00
59971;BME280;45825;45.434;9.116;2024-02-26T09:06:41;99281.31;;;8.40;100.00
59971;BME280;45825;45.434;9.116;2024-02-26T09:09:07;99282.34;;;8.37;100.00
59971;BME280;45825;45.434;9.116;2024-02-26T09:11:32;99291.91;;;8.38;100.00
59971;BME280;45825;45.434;9.116;2024-02-26T09:13:57;99287.88;;;8.33;100.00
59971;BME280;45825;45.434;9.116;2024-02-26T09:16:22;99290.50;;;8.33;100.00
59971;BME280;45825;45.434;9.116;2024-02-26T09:18:48;99289.28;;;8.24;100.00
59971;BME280;45825;45.434;9.116;2024-02-26T09:21:13;99292.19;;;8.34;100.00
59971;BME280;45825;45.434;9.116;2024-02-26T09:23:39;99292.38;;;8.31;100.00
59971;BME280;45825;45.434;9.116;2024-02-26T09:26:05;99297.34;;;8.35;100.00
59971;BME280;45825;45.434;9.116;2024-02-26T09:28:31;99289.47;;;8.35;100.00
59971;BME280;45825;45.434;9.116;2024-02-26T09:31:03;99289.69;;;8.32;100.00
59971;BME280;45825;45.434;9.116;2024-02-26T09:33:29;99278.91;;;8.22;100.00
59971;BME280;45825;45.434;9.116;2024-02-26T09:35:54;99275.16;;;8.27;100.00
59971;BME280;45825;45.434;9.116;2024-02-26T09:38:19;99283.41;;;8.35;100.00
59971;BME280;45825;45.434;9.116;2024-02-26T09:40:45;99280.88;;;8.33;100.00
59971;BME280;45825;45.434;9.116;2024-02-26T09:43:14;99285.34;;;8.17;100.00
59971;BME280;45825;45.434;9.116;2024-02-26T09:45:40;99288.44;;;8.23;100.00
59971;BME280;45825;45.434;9.116;2024-02-26T09:48:08;99295.22;;;8.13;100.00
59971;BME280;45825;45.434;9.116;2024-02-26T09:50:34;99295.75;;;8.18;100.00
59971;BME280;45825;45.434;9.116;2024-02-26T09:52:59;99282.00;;;8.15;100.00
59971;BME280;45825;45.434;9.116;2024-02-26T09:55:27;99282.94;;;8.14;100.00
59971;BME280;45825;45.434;9.116;2024-02-26T09:57:53;99291.81;;;8.11;100.00
59971;BME280;45825;45.434;9.116;2024-02-26T10:00:20;99301.09;;;8.02;100.00
59971;BME280;45825;45.434;9.116;2024-02-26T10:02:47;99289.47;;;8.06;100.00
59971;BME280;45825;45.434;9.116;2024-02-26T10:05:18;99291.25;;;8.06;100.00
59971;BME280;45825;45.434;9.116;2024-02-26T10:07:44;99296.59;;;8.04;100.00
59971;BME280;45825;45.434;9.116;2024-02-26T10:10:10;99295.56;;;8.07;100.00
59971;BME280;45825;45.434;9.116;2024-02-26T10:12:35;99293.88;;;8.06;100.00
59971;BME280;45825;45.434;9.116;2024-02-26T10:15:01;99300.81;;;8.07;100.00
59971;BME280;45825;45.434;9.116;2024-02-26T10:17:26;99291.63;;;8.00;100.00
59971;BME280;45825;45.434;9.116;2024-02-26T10:19:52;99281.34;;;8.11;100.00
59971;BME280;45825;45.434;9.116;2024-02-26T10:22:22;99273.75;;;8.06;100.00
59971;BME280;45825;45.434;9.116;2024-02-26T10:24:47;99281.34;;;7.96;100.00
59971;BME280;45825;45.434;9.116;2024-02-26T10:27:12;99286.22;;;8.03;100.00
59971;BME280;45825;45.434;9.116;2024-02-26T10:29:37;99280.47;;;7.96;100.00
59971;BME280;45825;45.434;9.116;2024-02-26T10:32:03;99289.38;;;7.93;100.00
59971;BME280;45825;45.434;9.116;2024-02-26T10:34:29;99283.84;;;7.83;100.00
59971;BME280;45825;45.434;9.116;2024-02-26T10:36:54;99300.97;;;7.89;100.00
59971;BME280;45825;45.434;9.116;2024-02-26T10:39:20;99297.91;;;7.97;100.00
59971;BME280;45825;45.434;9.116;2024-02-26T10:41:45;99311.00;;;7.97;100.00
59971;BME280;45825;45.434;9.116;2024-02-26T10:44:11;99306.69;;;7.96;100.00
59971;BME280;45825;45.434;9.116;2024-02-26T10:46:40;99301.16;;;7.86;100.00
59971;BME280;45825;45.434;9.116;2024-02-26T10:49:07;99296.59;;;7.90;100.00
59971;BME280;45825;45.434;9.116;2024-02-26T10:51:37;99293.97;;;7.90;100.00
59971;BME280;45825;45.434;9.116;2024-02-26T10:54:04;99285.84;;;7.94;100.00
59971;BME280;45825;45.434;9.116;2024-02-26T10:56:34;99273.53;;;7.66;100.00
59971;BME280;45825;45.434;9.116;2024-02-26T10:59:00;99270.91;;;7.66;100.00
59971;BME280;45825;45.434;9.116;2024-02-26T11:01:27;99268.16;;;7.53;100.00
59971;BME280;45825;45.434;9.116;2024-02-26T11:03:55;99282.75;;;7.57;100.00
59971;BME280;45825;45.434;9.116;2024-02-26T11:06:21;99276.50;;;7.60;100.00
59971;BME280;45825;45.434;9.116;2024-02-26T11:08:50;99284.84;;;7.66;100.00
59971;BME280;45825;45.434;9.116;2024-02-26T11:11:16;99285.09;;;7.62;100.00
59971;BME280;45825;45.434;9.116;2024-02-26T11:13:44;99284.00;;;7.66;100.00
59971;BME280;45825;45.434;9.116;2024-02-26T11:16:13;99281.47;;;7.64;100.00
59971;BME280;45825;45.434;9.116;2024-02-26T11:18:40;99286.63;;;7.66;100.00
59971;BME280;45825;45.434;9.116;2024-02-26T11:21:07;99301.41;;;7.67;100.00
59971;BME280;45825;45.434;9.116;2024-02-26T11:23:33;99310.56;;;7.74;100.00
59971;BME280;45825;45.434;9.116;2024-02-26T11:26:02;99303.09;;;7.68;100.00
59971;BME280;45825;45.434;9.116;2024-02-26T11:28:32;99298.47;;;7.57;100.00
59971;BME280;45825;45.434;9.116;2024-02-26T11:30:59;99296.53;;;7.61;100.00
59971;BME280;45825;45.434;9.116;2024-02-26T11:33:26;99287.47;;;7.66;100.00
59971;BME280;45825;45.434;9.116;2024-02-26T11:35:53;99283.06;;;7.67;100.00
59971;BME280;45825;45.434;9.116;2024-02-26T11:38:25;99272.69;;;7.65;100.00
59971;BME280;45825;45.434;9.116;2024-02-26T11:40:52;99277.84;;;7.67;100.00
59971;BME280;45825;45.434;9.116;2024-02-26T11:43:20;99276.03;;;7.67;100.00
59971;BME280;45825;45.434;9.116;2024-02-26T11:45:49;99267.19;;;7.70;100.00
59971;BME280;45825;45.434;9.116;2024-02-26T11:48:20;99263.53;;;7.73;100.00
59971;BME280;45825;45.434;9.116;2024-02-26T11:50:48;99248.03;;;7.69;100.00
59971;BME280;45825;45.434;9.116;2024-02-26T11:53:32;99251.53;;;7.68;100.00
59971;BME280;45825;45.434;9.116;2024-02-26T11:58:40;99246.28;;;7.54;100.00
59971;BME280;45825;45.434;9.116;2024-02-26T12:01:35;99226.34;;;7.37;100.00
59971;BME280;45825;45.434;9.116;2024-02-26T12:03:54;99229.22;;;7.32;100.00
59971;BME280;45825;45.434;9.116;2024-02-26T12:06:20;99225.78;;;7.32;100.00
59971;BME280;45825;45.434;9.116;2024-02-26T12:08:46;99212.78;;;7.30;100.00
59971;BME280;45825;45.434;9.116;2024-02-26T12:11:15;99212.03;;;7.28;100.00
59971;BME280;45825;45.434;9.116;2024-02-26T12:13:41;99219.97;;;7.26;100.00
59971;BME280;45825;45.434;9.116;2024-02-26T12:16:07;99216.47;;;7.11;100.00
59971;BME280;45825;45.434;9.116;2024-02-26T12:18:34;99218.25;;;7.11;100.00
59971;BME280;45825;45.434;9.116;2024-02-26T12:21:03;99218.00;;;7.16;100.00
59971;BME280;45825;45.434;9.116;2024-02-26T12:23:29;99218.78;;;7.02;100.00
59971;BME280;45825;45.434;9.116;2024-02-26T12:26:01;99228.78;;;7.09;100.00
59971;BME280;45825;45.434;9.116;2024-02-26T12:28:29;99230.06;;;7.02;100.00
59971;BME280;45825;45.434;9.116;2024-02-26T12:30:55;99235.53;;;7.13;100.00
59971;BME280;45825;45.434;9.116;2024-02-26T12:33:21;99236.56;;;7.11;100.00
59971;BME280;45825;45.434;9.116;2024-02-26T12:35:46;99238.81;;;7.17;100.00
59971;BME280;45825;45.434;9.116;2024-02-26T12:38:14;99225.13;;;7.28;100.00
59971;BME280;45825;45.434;9.116;2024-02-26T12:40:40;99231.84;;;7.32;100.00
59971;BME280;45825;45.434;9.116;2024-02-26T12:43:05;99232.88;;;7.30;100.00
59971;BME280;45825;45.434;9.116;2024-02-26T12:45:31;99237.94;;;7.33;100.00
59971;BME280;45825;45.434;9.116;2024-02-26T12:47:59;99249.00;;;7.22;100.00
59971;BME280;45825;45.434;9.116;2024-02-26T12:50:24;99243.81;;;7.36;100.00
59971;BME280;45825;45.434;9.116;2024-02-26T12:52:51;99256.13;;;7.20;100.00
59971;BME280;45825;45.434;9.116;2024-02-26T12:55:18;99257.13;;;7.17;100.00
59971;BME280;45825;45.434;9.116;2024-02-26T12:57:45;99262.22;;;7.04;100.00